Hoisington, Kansas
Current Conditions -  °F | °C
As of 2:15 PM on Thursday 23 Oct 2014 (Local Time) from KGBD Reporting Station
Few Clouds Few Clouds  
Wind Chill: 72°   Ceiling: Unl
Heat Index: 72°   Visibility: 10mi
Dew Point: 59°   Wind: 3mph
Humidity: 64%   Direction: 160°SSE
Pressure: 30.06"   Gusts: NA
Location:  38.52°N, 98.78°W
Report Text: KGBD 231915Z AUTO 16003KT 10SM FEW029 22/15 A3006 RMK AO1
Loading
Personal Weather Stations






























Interactive Weather Map
Tropical Storm Tracking
New forecast layout! Learn more

10-Day Weather Forecast

Advertisements
Track Severe Weather on mobile